Huvudsida
METAR-TAF:

METAR-TAF

Flygplatser :

Polokwane, Sydafrika

latitud: 23-50-43S, longitud: 29-27-31E, höjd: 1242 m

Aktuellt väderrapport

Denna rapport gjordes för 49 minuter sedan, klockan 19:00 UTC
Vind 3 kt från ost/nordost
Temperatur 13°C
Fuktighet 72%
Tryck 1029 hPa

METAR: FAPP 251900Z AUTO 07003KT //// // ////// 13/08 Q1029

Tid: 21:49 (19:49 UTC)

Väderprognos

Denna rapport gjordes för 10 timmar och 49 minuter sedan, klockan 09:00 UTC
Prognos gäller från 25 kl. 10 UTC till 25 kl. 18 UTC
Vind 6 kt från nord/nordost
Sikt 10 km eller mer
Inga moln under 1 500 m eller inga cumulonimbus

TAF: FAPP 250900Z 2510/2518 02006KT CAVOK TX23/2512Z TN16/2518Z

Aktuella väderrapporter och prognoser från 4000 flygplatser (METAR- och TAF-rapporter).

De tillgängliga stationerna syns som gula och röda prickar på kartan.

För musen över prickarna för att se namnen på stationerna.

Klicka sedan för att få väderrapporter och prognoser.

För att ändra kartan: Klicka på de gröna knapparna med ett svart kors på för att zooma in; den gröna knappen med ett streck på för att zooma ut; eller på de gröna pilarna för angränsande kartor.


METAR-TAF: